sensor_id;sensor_type;location;lat;lon;timestamp;P1;durP1;ratioP1;P2;durP2;ratioP2
48550;SDS011;34397;51.176;6.738;2023-02-18T00:01:31;10.00;;;8.13;;
48550;SDS011;34397;51.176;6.738;2023-02-18T00:04:04;10.35;;;7.40;;
48550;SDS011;34397;51.176;6.738;2023-02-18T00:06:35;12.77;;;8.10;;
48550;SDS011;34397;51.176;6.738;2023-02-18T00:09:07;13.93;;;8.63;;
48550;SDS011;34397;51.176;6.738;2023-02-18T00:11:42;10.45;;;8.63;;
48550;SDS011;34397;51.176;6.738;2023-02-18T00:14:14;10.30;;;8.27;;
48550;SDS011;34397;51.176;6.738;2023-02-18T00:16:47;11.55;;;8.70;;
48550;SDS011;34397;51.176;6.738;2023-02-18T00:19:19;9.95;;;7.80;;
48550;SDS011;34397;51.176;6.738;2023-02-18T00:21:51;13.05;;;8.35;;
48550;SDS011;34397;51.176;6.738;2023-02-18T00:24:22;11.55;;;8.77;;
48550;SDS011;34397;51.176;6.738;2023-02-18T00:26:55;10.75;;;8.80;;
48550;SDS011;34397;51.176;6.738;2023-02-18T00:29:27;12.73;;;8.23;;
48550;SDS011;34397;51.176;6.738;2023-02-18T00:31:59;11.05;;;8.68;;
48550;SDS011;34397;51.176;6.738;2023-02-18T00:34:32;11.23;;;8.98;;
48550;SDS011;34397;51.176;6.738;2023-02-18T00:37:04;12.82;;;9.52;;
48550;SDS011;34397;51.176;6.738;2023-02-18T00:39:35;11.60;;;8.98;;
48550;SDS011;34397;51.176;6.738;2023-02-18T00:42:09;11.55;;;9.23;;
48550;SDS011;34397;51.176;6.738;2023-02-18T00:44:40;12.25;;;9.02;;
48550;SDS011;34397;51.176;6.738;2023-02-18T00:47:12;10.63;;;8.60;;
48550;SDS011;34397;51.176;6.738;2023-02-18T00:49:44;12.35;;;10.50;;
48550;SDS011;34397;51.176;6.738;2023-02-18T00:52:16;13.27;;;9.65;;
48550;SDS011;34397;51.176;6.738;2023-02-18T00:54:48;12.82;;;9.35;;
48550;SDS011;34397;51.176;6.738;2023-02-18T00:57:21;13.90;;;9.75;;
48550;SDS011;34397;51.176;6.738;2023-02-18T00:59:53;10.70;;;9.32;;
48550;SDS011;34397;51.176;6.738;2023-02-18T01:02:25;11.75;;;8.80;;
48550;SDS011;34397;51.176;6.738;2023-02-18T01:04:57;11.85;;;9.65;;
48550;SDS011;34397;51.176;6.738;2023-02-18T01:07:28;16.27;;;9.63;;
48550;SDS011;34397;51.176;6.738;2023-02-18T01:10:00;11.95;;;9.23;;
48550;SDS011;34397;51.176;6.738;2023-02-18T01:12:33;12.32;;;9.68;;
48550;SDS011;34397;51.176;6.738;2023-02-18T01:15:05;13.73;;;9.40;;
48550;SDS011;34397;51.176;6.738;2023-02-18T01:17:39;10.77;;;8.95;;
48550;SDS011;34397;51.176;6.738;2023-02-18T01:20:11;12.43;;;8.85;;
48550;SDS011;34397;51.176;6.738;2023-02-18T01:22:44;12.82;;;9.20;;
48550;SDS011;34397;51.176;6.738;2023-02-18T01:25:16;12.00;;;9.07;;
48550;SDS011;34397;51.176;6.738;2023-02-18T01:27:50;9.95;;;8.20;;
48550;SDS011;34397;51.176;6.738;2023-02-18T01:30:22;13.10;;;8.20;;
48550;SDS011;34397;51.176;6.738;2023-02-18T01:32:54;12.98;;;9.00;;
48550;SDS011;34397;51.176;6.738;2023-02-18T01:35:26;12.63;;;8.70;;
48550;SDS011;34397;51.176;6.738;2023-02-18T01:37:58;9.70;;;7.78;;
48550;SDS011;34397;51.176;6.738;2023-02-18T01:40:30;10.15;;;7.20;;
48550;SDS011;34397;51.176;6.738;2023-02-18T01:43:04;9.63;;;7.82;;
48550;SDS011;34397;51.176;6.738;2023-02-18T01:45:50;9.68;;;7.47;;
48550;SDS011;34397;51.176;6.738;2023-02-18T01:48:41;9.55;;;7.90;;
48550;SDS011;34397;51.176;6.738;2023-02-18T01:51:19;12.05;;;7.60;;
48550;SDS011;34397;51.176;6.738;2023-02-18T01:53:54;8.43;;;6.85;;
48550;SDS011;34397;51.176;6.738;2023-02-18T01:56:31;9.10;;;6.90;;
48550;SDS011;34397;51.176;6.738;2023-02-18T01:59:10;9.95;;;7.07;;
48550;SDS011;34397;51.176;6.738;2023-02-18T02:01:45;10.20;;;7.55;;
48550;SDS011;34397;51.176;6.738;2023-02-18T02:04:18;19.40;;;7.18;;
48550;SDS011;34397;51.176;6.738;2023-02-18T02:06:51;8.45;;;6.82;;
48550;SDS011;34397;51.176;6.738;2023-02-18T02:09:23;10.55;;;7.07;;
48550;SDS011;34397;51.176;6.738;2023-02-18T02:12:05;9.25;;;6.82;;
48550;SDS011;34397;51.176;6.738;2023-02-18T02:15:15;8.85;;;6.90;;
48550;SDS011;34397;51.176;6.738;2023-02-18T02:18:04;8.55;;;6.78;;
48550;SDS011;34397;51.176;6.738;2023-02-18T02:21:12;8.40;;;6.50;;
48550;SDS011;34397;51.176;6.738;2023-02-18T02:24:23;8.80;;;6.75;;
48550;SDS011;34397;51.176;6.738;2023-02-18T02:27:21;8.88;;;7.28;;
48550;SDS011;34397;51.176;6.738;2023-02-18T02:33:21;10.43;;;7.68;;
48550;SDS011;34397;51.176;6.738;2023-02-18T02:39:08;9.13;;;7.15;;
48550;SDS011;34397;51.176;6.738;2023-02-18T02:41:47;10.30;;;8.05;;
48550;SDS011;34397;51.176;6.738;2023-02-18T02:44:26;9.85;;;7.22;;
48550;SDS011;34397;51.176;6.738;2023-02-18T02:49:46;11.23;;;7.82;;
48550;SDS011;34397;51.176;6.738;2023-02-18T02:52:26;11.02;;;7.57;;
48550;SDS011;34397;51.176;6.738;2023-02-18T02:55:03;9.93;;;7.50;;
48550;SDS011;34397;51.176;6.738;2023-02-18T02:57:43;11.90;;;8.07;;
48550;SDS011;34397;51.176;6.738;2023-02-18T03:00:22;10.25;;;7.63;;
48550;SDS011;34397;51.176;6.738;2023-02-18T03:03:10;13.45;;;7.65;;
48550;SDS011;34397;51.176;6.738;2023-02-18T03:06:05;8.65;;;6.93;;
48550;SDS011;34397;51.176;6.738;2023-02-18T03:08:59;8.25;;;5.82;;
48550;SDS011;34397;51.176;6.738;2023-02-18T03:11:41;9.88;;;7.03;;
48550;SDS011;34397;51.176;6.738;2023-02-18T03:17:00;9.70;;;6.05;;
48550;SDS011;34397;51.176;6.738;2023-02-18T03:19:38;7.88;;;6.13;;
48550;SDS011;34397;51.176;6.738;2023-02-18T03:22:16;8.70;;;6.18;;
48550;SDS011;34397;51.176;6.738;2023-02-18T03:24:52;8.52;;;5.70;;
48550;SDS011;34397;51.176;6.738;2023-02-18T03:27:28;7.90;;;5.95;;
48550;SDS011;34397;51.176;6.738;2023-02-18T03:30:06;7.95;;;5.78;;
48550;SDS011;34397;51.176;6.738;2023-02-18T03:32:44;6.80;;;5.45;;
48550;SDS011;34397;51.176;6.738;2023-02-18T03:35:19;7.57;;;5.97;;
48550;SDS011;34397;51.176;6.738;2023-02-18T03:37:53;6.57;;;5.40;;
48550;SDS011;34397;51.176;6.738;2023-02-18T03:40:33;7.22;;;5.80;;
48550;SDS011;34397;51.176;6.738;2023-02-18T03:43:05;7.20;;;5.53;;
48550;SDS011;34397;51.176;6.738;2023-02-18T03:45:37;8.25;;;5.65;;
48550;SDS011;34397;51.176;6.738;2023-02-18T03:48:08;6.50;;;5.32;;
48550;SDS011;34397;51.176;6.738;2023-02-18T03:50:40;6.45;;;4.63;;
48550;SDS011;34397;51.176;6.738;2023-02-18T03:53:12;7.70;;;4.82;;
48550;SDS011;34397;51.176;6.738;2023-02-18T03:55:45;5.55;;;4.53;;
48550;SDS011;34397;51.176;6.738;2023-02-18T03:58:17;6.15;;;3.80;;
48550;SDS011;34397;51.176;6.738;2023-02-18T04:00:49;8.75;;;4.03;;
48550;SDS011;34397;51.176;6.738;2023-02-18T04:03:21;6.60;;;3.85;;
48550;SDS011;34397;51.176;6.738;2023-02-18T04:05:52;4.63;;;3.83;;
48550;SDS011;34397;51.176;6.738;2023-02-18T04:08:24;4.22;;;3.33;;
48550;SDS011;34397;51.176;6.738;2023-02-18T04:10:58;4.00;;;3.28;;
48550;SDS011;34397;51.176;6.738;2023-02-18T04:13:30;4.70;;;3.63;;
48550;SDS011;34397;51.176;6.738;2023-02-18T04:16:02;4.38;;;3.45;;
48550;SDS011;34397;51.176;6.738;2023-02-18T04:18:35;4.43;;;3.45;;
48550;SDS011;34397;51.176;6.738;2023-02-18T04:21:07;4.38;;;3.05;;
48550;SDS011;34397;51.176;6.738;2023-02-18T04:23:39;6.95;;;3.45;;
48550;SDS011;34397;51.176;6.738;2023-02-18T04:26:12;4.43;;;3.22;;
48550;SDS011;34397;51.176;6.738;2023-02-18T04:28:44;4.68;;;2.90;;
48550;SDS011;34397;51.176;6.738;2023-02-18T04:31:16;4.97;;;3.00;;
48550;SDS011;34397;51.176;6.738;2023-02-18T04:33:48;3.00;;;2.35;;
48550;SDS011;34397;51.176;6.738;2023-02-18T04:36:20;4.13;;;2.83;;
48550;SDS011;34397;51.176;6.738;2023-02-18T04:38:51;3.97;;;2.40;;
48550;SDS011;34397;51.176;6.738;2023-02-18T04:41:25;2.95;;;2.55;;
48550;SDS011;34397;51.176;6.738;2023-02-18T04:43:56;3.50;;;2.25;;
48550;SDS011;34397;51.176;6.738;2023-02-18T04:46:29;3.95;;;2.50;;
48550;SDS011;34397;51.176;6.738;2023-02-18T04:49:02;3.75;;;2.40;;
48550;SDS011;34397;51.176;6.738;2023-02-18T04:51:34;2.30;;;1.80;;
48550;SDS011;34397;51.176;6.738;2023-02-18T04:54:06;2.78;;;1.95;;
48550;SDS011;34397;51.176;6.738;2023-02-18T04:56:39;3.08;;;2.10;;
48550;SDS011;34397;51.176;6.738;2023-02-18T04:59:11;3.13;;;2.20;;
48550;SDS011;34397;51.176;6.738;2023-02-18T05:01:43;2.38;;;1.90;;
48550;SDS011;34397;51.176;6.738;2023-02-18T05:04:15;2.90;;;2.10;;
48550;SDS011;34397;51.176;6.738;2023-02-18T05:06:47;3.15;;;2.25;;
48550;SDS011;34397;51.176;6.738;2023-02-18T05:09:19;3.10;;;2.28;;
48550;SDS011;34397;51.176;6.738;2023-02-18T05:11:52;4.18;;;2.15;;
48550;SDS011;34397;51.176;6.738;2023-02-18T05:14:24;4.35;;;2.60;;
48550;SDS011;34397;51.176;6.738;2023-02-18T05:16:56;3.97;;;2.47;;
48550;SDS011;34397;51.176;6.738;2023-02-18T05:19:28;3.60;;;2.83;;
48550;SDS011;34397;51.176;6.738;2023-02-18T05:22:00;4.53;;;3.13;;
48550;SDS011;34397;51.176;6.738;2023-02-18T05:24:31;4.55;;;3.70;;
48550;SDS011;34397;51.176;6.738;2023-02-18T05:27:04;3.40;;;3.00;;
48550;SDS011;34397;51.176;6.738;2023-02-18T05:29:36;6.47;;;2.97;;
48550;SDS011;34397;51.176;6.738;2023-02-18T05:32:08;6.97;;;3.47;;
48550;SDS011;34397;51.176;6.738;2023-02-18T05:34:40;5.07;;;3.10;;
48550;SDS011;34397;51.176;6.738;2023-02-18T05:37:12;4.25;;;3.00;;
48550;SDS011;34397;51.176;6.738;2023-02-18T05:39:44;4.70;;;3.10;;
48550;SDS011;34397;51.176;6.738;2023-02-18T05:42:17;4.78;;;3.58;;
48550;SDS011;34397;51.176;6.738;2023-02-18T05:44:49;4.53;;;3.65;;
48550;SDS011;34397;51.176;6.738;2023-02-18T05:47:21;5.03;;;3.72;;
48550;SDS011;34397;51.176;6.738;2023-02-18T05:49:53;5.55;;;4.07;;
48550;SDS011;34397;51.176;6.738;2023-02-18T05:54:57;4.57;;;3.47;;
48550;SDS011;34397;51.176;6.738;2023-02-18T05:57:30;5.00;;;3.80;;
48550;SDS011;34397;51.176;6.738;2023-02-18T06:00:02;3.92;;;3.20;;
48550;SDS011;34397;51.176;6.738;2023-02-18T06:02:37;4.50;;;3.42;;
48550;SDS011;34397;51.176;6.738;2023-02-18T06:05:09;4.45;;;3.30;;
48550;SDS011;34397;51.176;6.738;2023-02-18T06:07:41;4.38;;;3.55;;
48550;SDS011;34397;51.176;6.738;2023-02-18T06:10:13;4.43;;;3.67;;
48550;SDS011;34397;51.176;6.738;2023-02-18T06:12:48;3.70;;;3.10;;
48550;SDS011;34397;51.176;6.738;2023-02-18T06:15:20;3.70;;;3.03;;
48550;SDS011;34397;51.176;6.738;2023-02-18T06:17:52;4.80;;;3.47;;
48550;SDS011;34397;51.176;6.738;2023-02-18T06:20:23;5.35;;;3.30;;
48550;SDS011;34397;51.176;6.738;2023-02-18T06:22:55;4.78;;;2.90;;
48550;SDS011;34397;51.176;6.738;2023-02-18T06:25:27;3.33;;;2.20;;
48550;SDS011;34397;51.176;6.738;2023-02-18T06:28:00;4.22;;;2.67;;
48550;SDS011;34397;51.176;6.738;2023-02-18T06:30:32;3.40;;;2.55;;
48550;SDS011;34397;51.176;6.738;2023-02-18T06:33:04;3.25;;;2.40;;
48550;SDS011;34397;51.176;6.738;2023-02-18T06:35:36;3.13;;;2.55;;
48550;SDS011;34397;51.176;6.738;2023-02-18T06:38:07;3.03;;;2.28;;
48550;SDS011;34397;51.176;6.738;2023-02-18T06:40:39;2.55;;;1.90;;
48550;SDS011;34397;51.176;6.738;2023-02-18T06:43:12;2.45;;;2.08;;
48550;SDS011;34397;51.176;6.738;2023-02-18T06:45:44;3.28;;;1.60;;
48550;SDS011;34397;51.176;6.738;2023-02-18T06:48:16;2.00;;;1.77;;
48550;SDS011;34397;51.176;6.738;2023-02-18T06:50:48;2.33;;;1.50;;
48550;SDS011;34397;51.176;6.738;2023-02-18T06:53:21;3.10;;;1.85;;
48550;SDS011;34397;51.176;6.738;2023-02-18T06:55:53;2.45;;;1.65;;
48550;SDS011;34397;51.176;6.738;2023-02-18T06:58:26;2.65;;;1.95;;
48550;SDS011;34397;51.176;6.738;2023-02-18T07:00:58;2.28;;;1.52;;
48550;SDS011;34397;51.176;6.738;2023-02-18T07:03:30;1.50;;;1.40;;
48550;SDS011;34397;51.176;6.738;2023-02-18T07:06:02;1.67;;;1.40;;
48550;SDS011;34397;51.176;6.738;2023-02-18T07:08:35;2.45;;;1.83;;
48550;SDS011;34397;51.176;6.738;2023-02-18T07:11:08;2.33;;;1.80;;
48550;SDS011;34397;51.176;6.738;2023-02-18T07:13:41;2.13;;;1.77;;
48550;SDS011;34397;51.176;6.738;2023-02-18T07:16:12;3.38;;;2.05;;
48550;SDS011;34397;51.176;6.738;2023-02-18T07:18:44;2.05;;;1.73;;
48550;SDS011;34397;51.176;6.738;2023-02-18T07:21:16;2.50;;;1.80;;
48550;SDS011;34397;51.176;6.738;2023-02-18T07:23:48;1.80;;;1.58;;
48550;SDS011;34397;51.176;6.738;2023-02-18T07:26:20;1.80;;;1.60;;
48550;SDS011;34397;51.176;6.738;2023-02-18T07:28:53;2.00;;;1.50;;
48550;SDS011;34397;51.176;6.738;2023-02-18T07:31:25;3.53;;;1.80;;
48550;SDS011;34397;51.176;6.738;2023-02-18T07:33:57;2.28;;;1.60;;
48550;SDS011;34397;51.176;6.738;2023-02-18T07:36:29;2.28;;;1.75;;
48550;SDS011;34397;51.176;6.738;2023-02-18T07:39:00;2.05;;;1.23;;
48550;SDS011;34397;51.176;6.738;2023-02-18T07:41:32;1.77;;;1.52;;
48550;SDS011;34397;51.176;6.738;2023-02-18T07:44:05;1.52;;;1.30;;
48550;SDS011;34397;51.176;6.738;2023-02-18T07:46:38;2.13;;;1.77;;
48550;SDS011;34397;51.176;6.738;2023-02-18T07:49:10;2.20;;;1.33;;
48550;SDS011;34397;51.176;6.738;2023-02-18T07:51:42;3.35;;;1.55;;
48550;SDS011;34397;51.176;6.738;2023-02-18T07:54:17;4.13;;;1.50;;
48550;SDS011;34397;51.176;6.738;2023-02-18T07:56:49;1.83;;;1.25;;
48550;SDS011;34397;51.176;6.738;2023-02-18T07:59:22;2.35;;;1.50;;
48550;SDS011;34397;51.176;6.738;2023-02-18T08:01:54;2.40;;;1.33;;
48550;SDS011;34397;51.176;6.738;2023-02-18T08:04:26;1.90;;;1.40;;
48550;SDS011;34397;51.176;6.738;2023-02-18T08:06:58;1.73;;;1.20;;
48550;SDS011;34397;51.176;6.738;2023-02-18T08:09:29;2.17;;;1.05;;
48550;SDS011;34397;51.176;6.738;2023-02-18T08:12:01;1.90;;;1.00;;
48550;SDS011;34397;51.176;6.738;2023-02-18T08:14:35;1.67;;;1.02;;
48550;SDS011;34397;51.176;6.738;2023-02-18T08:17:06;2.75;;;1.25;;
48550;SDS011;34397;51.176;6.738;2023-02-18T08:19:38;4.40;;;1.42;;
48550;SDS011;34397;51.176;6.738;2023-02-18T08:22:10;3.85;;;1.45;;
48550;SDS011;34397;51.176;6.738;2023-02-18T08:24:42;3.30;;;1.20;;
48550;SDS011;34397;51.176;6.738;2023-02-18T08:27:14;5.60;;;1.45;;
48550;SDS011;34397;51.176;6.738;2023-02-18T08:29:47;3.72;;;1.45;;
48550;SDS011;34397;51.176;6.738;2023-02-18T08:32:18;5.75;;;1.63;;
48550;SDS011;34397;51.176;6.738;2023-02-18T08:34:50;4.53;;;1.42;;
48550;SDS011;34397;51.176;6.738;2023-02-18T08:37:22;5.78;;;1.75;;
48550;SDS011;34397;51.176;6.738;2023-02-18T08:39:54;8.30;;;1.42;;
48550;SDS011;34397;51.176;6.738;2023-02-18T08:42:26;4.82;;;1.17;;
48550;SDS011;34397;51.176;6.738;2023-02-18T08:44:59;7.47;;;1.67;;
48550;SDS011;34397;51.176;6.738;2023-02-18T08:47:31;4.95;;;1.48;;
48550;SDS011;34397;51.176;6.738;2023-02-18T08:50:03;5.18;;;1.52;;
48550;SDS011;34397;51.176;6.738;2023-02-18T08:52:36;5.75;;;1.90;;
48550;SDS011;34397;51.176;6.738;2023-02-18T08:55:08;3.88;;;1.23;;
48550;SDS011;34397;51.176;6.738;2023-02-18T08:57:40;4.30;;;1.60;;
48550;SDS011;34397;51.176;6.738;2023-02-18T09:00:14;4.93;;;1.50;;
48550;SDS011;34397;51.176;6.738;2023-02-18T09:02:47;10.32;;;1.77;;
48550;SDS011;34397;51.176;6.738;2023-02-18T09:05:19;4.43;;;1.40;;
48550;SDS011;34397;51.176;6.738;2023-02-18T09:07:51;8.70;;;1.75;;
48550;SDS011;34397;51.176;6.738;2023-02-18T09:10:23;6.43;;;1.45;;
48550;SDS011;34397;51.176;6.738;2023-02-18T09:12:55;8.30;;;1.42;;
48550;SDS011;34397;51.176;6.738;2023-02-18T09:15:28;7.53;;;1.73;;
48550;SDS011;34397;51.176;6.738;2023-02-18T09:18:01;12.30;;;2.13;;
48550;SDS011;34397;51.176;6.738;2023-02-18T09:20:33;6.70;;;1.58;;
48550;SDS011;34397;51.176;6.738;2023-02-18T09:23:04;8.80;;;1.88;;
48550;SDS011;34397;51.176;6.738;2023-02-18T09:25:38;9.13;;;1.80;;
48550;SDS011;34397;51.176;6.738;2023-02-18T09:28:10;8.30;;;1.70;;
48550;SDS011;34397;51.176;6.738;2023-02-18T09:30:43;12.57;;;2.30;;
48550;SDS011;34397;51.176;6.738;2023-02-18T09:33:15;7.93;;;1.83;;
48550;SDS011;34397;51.176;6.738;2023-02-18T09:35:47;6.65;;;1.60;;
48550;SDS011;34397;51.176;6.738;2023-02-18T09:38:18;7.03;;;1.30;;
48550;SDS011;34397;51.176;6.738;2023-02-18T09:40:50;7.90;;;1.52;;
48550;SDS011;34397;51.176;6.738;2023-02-18T09:43:26;6.35;;;1.42;;
48550;SDS011;34397;51.176;6.738;2023-02-18T09:46:04;4.55;;;1.40;;
48550;SDS011;34397;51.176;6.738;2023-02-18T09:48:47;8.25;;;1.65;;
48550;SDS011;34397;51.176;6.738;2023-02-18T09:53:51;6.65;;;1.50;;
48550;SDS011;34397;51.176;6.738;2023-02-18T09:56:25;4.45;;;1.30;;
48550;SDS011;34397;51.176;6.738;2023-02-18T09:59:02;5.30;;;1.45;;
48550;SDS011;34397;51.176;6.738;2023-02-18T10:01:40;9.43;;;1.63;;
48550;SDS011;34397;51.176;6.738;2023-02-18T10:04:14;5.68;;;1.27;;
48550;SDS011;34397;51.176;6.738;2023-02-18T10:06:52;7.15;;;1.60;;
48550;SDS011;34397;51.176;6.738;2023-02-18T10:09:27;6.07;;;1.55;;
48550;SDS011;34397;51.176;6.738;2023-02-18T10:12:07;125.45;;;8.07;;
48550;SDS011;34397;51.176;6.738;2023-02-18T10:14:47;9.23;;;1.95;;
48550;SDS011;34397;51.176;6.738;2023-02-18T10:17:23;13.00;;;2.08;;
48550;SDS011;34397;51.176;6.738;2023-02-18T10:19:57;7.32;;;1.50;;
48550;SDS011;34397;51.176;6.738;2023-02-18T10:25:02;10.03;;;1.60;;
48550;SDS011;34397;51.176;6.738;2023-02-18T10:27:37;8.05;;;1.60;;
48550;SDS011;34397;51.176;6.738;2023-02-18T10:30:16;12.00;;;2.08;;
48550;SDS011;34397;51.176;6.738;2023-02-18T10:32:58;8.82;;;1.98;;
48550;SDS011;34397;51.176;6.738;2023-02-18T10:35:43;7.05;;;1.90;;
48550;SDS011;34397;51.176;6.738;2023-02-18T10:38:22;16.02;;;2.25;;
48550;SDS011;34397;51.176;6.738;2023-02-18T10:41:08;12.13;;;2.22;;
48550;SDS011;34397;51.176;6.738;2023-02-18T10:43:53;12.60;;;2.53;;
48550;SDS011;34397;51.176;6.738;2023-02-18T10:46:35;11.27;;;2.85;;
48550;SDS011;34397;51.176;6.738;2023-02-18T10:49:19;11.02;;;2.13;;
48550;SDS011;34397;51.176;6.738;2023-02-18T10:52:20;10.10;;;2.20;;
48550;SDS011;34397;51.176;6.738;2023-02-18T10:54:57;11.18;;;2.60;;
48550;SDS011;34397;51.176;6.738;2023-02-18T10:57:31;11.18;;;2.47;;
48550;SDS011;34397;51.176;6.738;2023-02-18T11:00:10;9.68;;;2.95;;
48550;SDS011;34397;51.176;6.738;2023-02-18T11:02:47;9.45;;;2.88;;
48550;SDS011;34397;51.176;6.738;2023-02-18T11:05:45;15.20;;;3.72;;
48550;SDS011;34397;51.176;6.738;2023-02-18T11:08:21;11.05;;;2.92;;
48550;SDS011;34397;51.176;6.738;2023-02-18T11:10:56;11.05;;;3.67;;
48550;SDS011;34397;51.176;6.738;2023-02-18T11:13:28;10.32;;;3.47;;
48550;SDS011;34397;51.176;6.738;2023-02-18T11:16:03;7.20;;;2.70;;
48550;SDS011;34397;51.176;6.738;2023-02-18T11:18:39;8.75;;;3.42;;
48550;SDS011;34397;51.176;6.738;2023-02-18T11:21:28;9.75;;;3.63;;
48550;SDS011;34397;51.176;6.738;2023-02-18T11:24:05;6.15;;;2.67;;
48550;SDS011;34397;51.176;6.738;2023-02-18T11:26:40;8.40;;;2.88;;
48550;SDS011;34397;51.176;6.738;2023-02-18T11:29:14;4.80;;;2.22;;
48550;SDS011;34397;51.176;6.738;2023-02-18T11:31:51;14.00;;;2.55;;
48550;SDS011;34397;51.176;6.738;2023-02-18T11:34:26;4.07;;;2.03;;
48550;SDS011;34397;51.176;6.738;2023-02-18T11:37:08;6.38;;;2.35;;
48550;SDS011;34397;51.176;6.738;2023-02-18T11:39:43;8.88;;;2.45;;
48550;SDS011;34397;51.176;6.738;2023-02-18T11:42:17;5.20;;;2.45;;
48550;SDS011;34397;51.176;6.738;2023-02-18T11:44:52;6.38;;;2.67;;
48550;SDS011;34397;51.176;6.738;2023-02-18T11:47:27;7.75;;;3.10;;
48550;SDS011;34397;51.176;6.738;2023-02-18T11:50:13;4.55;;;2.70;;
48550;SDS011;34397;51.176;6.738;2023-02-18T11:52:53;6.25;;;3.10;;
48550;SDS011;34397;51.176;6.738;2023-02-18T11:55:27;8.23;;;3.42;;
48550;SDS011;34397;51.176;6.738;2023-02-18T11:58:04;6.28;;;3.03;;
48550;SDS011;34397;51.176;6.738;2023-02-18T12:00:38;7.75;;;3.92;;
48550;SDS011;34397;51.176;6.738;2023-02-18T12:03:14;7.45;;;3.15;;
48550;SDS011;34397;51.176;6.738;2023-02-18T12:05:56;4.40;;;3.03;;
48550;SDS011;34397;51.176;6.738;2023-02-18T12:08:34;7.53;;;2.53;;
48550;SDS011;34397;51.176;6.738;2023-02-18T12:11:21;8.43;;;3.30;;
48550;SDS011;34397;51.176;6.738;2023-02-18T12:14:00;7.60;;;2.85;;
48550;SDS011;34397;51.176;6.738;2023-02-18T12:16:34;5.78;;;2.60;;
48550;SDS011;34397;51.176;6.738;2023-02-18T12:19:23;4.97;;;2.90;;
48550;SDS011;34397;51.176;6.738;2023-02-18T12:22:18;5.22;;;2.60;;
48550;SDS011;34397;51.176;6.738;2023-02-18T12:25:06;5.65;;;2.85;;
48550;SDS011;34397;51.176;6.738;2023-02-18T12:27:56;7.88;;;3.45;;
48550;SDS011;34397;51.176;6.738;2023-02-18T12:30:50;12.00;;;4.10;;
48550;SDS011;34397;51.176;6.738;2023-02-18T12:34:00;6.28;;;3.22;;
48550;SDS011;34397;51.176;6.738;2023-02-18T12:36:49;7.03;;;3.28;;
48550;SDS011;34397;51.176;6.738;2023-02-18T12:39:34;4.43;;;3.00;;
48550;SDS011;34397;51.176;6.738;2023-02-18T12:42:39;7.30;;;3.00;;
48550;SDS011;34397;51.176;6.738;2023-02-18T12:45:30;5.10;;;2.88;;
48550;SDS011;34397;51.176;6.738;2023-02-18T12:48:26;6.20;;;3.05;;
48550;SDS011;34397;51.176;6.738;2023-02-18T12:51:15;5.97;;;3.67;;
48550;SDS011;34397;51.176;6.738;2023-02-18T12:54:05;6.32;;;3.17;;
48550;SDS011;34397;51.176;6.738;2023-02-18T12:57:09;5.00;;;3.13;;
48550;SDS011;34397;51.176;6.738;2023-02-18T13:00:19;5.70;;;3.78;;
48550;SDS011;34397;51.176;6.738;2023-02-18T13:03:22;6.22;;;3.03;;
48550;SDS011;34397;51.176;6.738;2023-02-18T13:06:15;6.03;;;2.95;;
48550;SDS011;34397;51.176;6.738;2023-02-18T13:09:11;4.85;;;3.25;;
48550;SDS011;34397;51.176;6.738;2023-02-18T13:11:55;6.18;;;3.00;;
48550;SDS011;34397;51.176;6.738;2023-02-18T13:14:35;6.38;;;3.05;;
48550;SDS011;34397;51.176;6.738;2023-02-18T13:17:16;4.95;;;3.17;;
48550;SDS011;34397;51.176;6.738;2023-02-18T13:19:51;6.75;;;3.05;;
48550;SDS011;34397;51.176;6.738;2023-02-18T13:22:29;4.47;;;3.20;;
48550;SDS011;34397;51.176;6.738;2023-02-18T13:27:35;7.30;;;3.63;;
48550;SDS011;34397;51.176;6.738;2023-02-18T13:30:17;5.97;;;3.22;;
48550;SDS011;34397;51.176;6.738;2023-02-18T13:32:59;5.97;;;3.40;;
48550;SDS011;34397;51.176;6.738;2023-02-18T13:35:39;5.78;;;3.20;;
48550;SDS011;34397;51.176;6.738;2023-02-18T13:38:25;6.22;;;4.05;;
48550;SDS011;34397;51.176;6.738;2023-02-18T13:41:28;4.68;;;3.45;;
48550;SDS011;34397;51.176;6.738;2023-02-18T13:44:08;5.05;;;3.58;;
48550;SDS011;34397;51.176;6.738;2023-02-18T13:50:14;6.70;;;3.60;;
48550;SDS011;34397;51.176;6.738;2023-02-18T13:53:13;7.32;;;3.38;;
48550;SDS011;34397;51.176;6.738;2023-02-18T13:55:55;7.50;;;3.35;;
48550;SDS011;34397;51.176;6.738;2023-02-18T13:58:37;6.55;;;3.88;;
48550;SDS011;34397;51.176;6.738;2023-02-18T14:01:14;6.90;;;3.33;;
48550;SDS011;34397;51.176;6.738;2023-02-18T14:03:54;4.93;;;3.03;;
48550;SDS011;34397;51.176;6.738;2023-02-18T14:06:31;5.07;;;3.15;;
48550;SDS011;34397;51.176;6.738;2023-02-18T14:12:23;6.70;;;3.50;;
48550;SDS011;34397;51.176;6.738;2023-02-18T14:18:24;7.32;;;3.33;;
48550;SDS011;34397;51.176;6.738;2023-02-18T14:21:36;5.38;;;2.95;;
48550;SDS011;34397;51.176;6.738;2023-02-18T14:24:10;5.72;;;3.17;;
48550;SDS011;34397;51.176;6.738;2023-02-18T14:26:44;5.00;;;3.42;;
48550;SDS011;34397;51.176;6.738;2023-02-18T14:29:19;5.75;;;3.20;;
48550;SDS011;34397;51.176;6.738;2023-02-18T14:31:59;6.53;;;3.45;;
48550;SDS011;34397;51.176;6.738;2023-02-18T14:34:38;5.20;;;3.13;;
48550;SDS011;34397;51.176;6.738;2023-02-18T14:37:45;5.35;;;3.00;;
48550;SDS011;34397;51.176;6.738;2023-02-18T14:40:56;6.40;;;2.92;;
48550;SDS011;34397;51.176;6.738;2023-02-18T14:43:48;8.13;;;3.58;;
48550;SDS011;34397;51.176;6.738;2023-02-18T14:46:53;6.47;;;3.00;;
48550;SDS011;34397;51.176;6.738;2023-02-18T14:49:39;3.58;;;2.90;;
48550;SDS011;34397;51.176;6.738;2023-02-18T14:52:15;8.60;;;3.17;;
48550;SDS011;34397;51.176;6.738;2023-02-18T14:55:03;4.88;;;2.50;;
48550;SDS011;34397;51.176;6.738;2023-02-18T14:57:39;5.70;;;3.08;;
48550;SDS011;34397;51.176;6.738;2023-02-18T15:00:16;5.68;;;3.03;;
48550;SDS011;34397;51.176;6.738;2023-02-18T15:02:51;6.47;;;2.92;;
48550;SDS011;34397;51.176;6.738;2023-02-18T15:05:25;4.97;;;2.65;;
48550;SDS011;34397;51.176;6.738;2023-02-18T15:08:00;5.15;;;2.70;;
48550;SDS011;34397;51.176;6.738;2023-02-18T15:10:36;4.68;;;3.10;;
48550;SDS011;34397;51.176;6.738;2023-02-18T15:13:13;4.32;;;3.20;;
48550;SDS011;34397;51.176;6.738;2023-02-18T15:15:51;5.05;;;3.17;;
48550;SDS011;34397;51.176;6.738;2023-02-18T15:18:27;6.93;;;3.38;;
48550;SDS011;34397;51.176;6.738;2023-02-18T15:21:04;6.53;;;3.40;;
48550;SDS011;34397;51.176;6.738;2023-02-18T15:23:38;7.80;;;3.42;;
48550;SDS011;34397;51.176;6.738;2023-02-18T15:26:12;6.25;;;3.47;;
48550;SDS011;34397;51.176;6.738;2023-02-18T15:28:50;5.43;;;3.40;;
48550;SDS011;34397;51.176;6.738;2023-02-18T15:31:29;5.43;;;3.20;;
48550;SDS011;34397;51.176;6.738;2023-02-18T15:34:15;6.35;;;3.20;;
48550;SDS011;34397;51.176;6.738;2023-02-18T15:37:09;6.90;;;3.55;;
48550;SDS011;34397;51.176;6.738;2023-02-18T15:39:44;7.32;;;3.50;;
48550;SDS011;34397;51.176;6.738;2023-02-18T15:42:21;4.57;;;3.70;;
48550;SDS011;34397;51.176;6.738;2023-02-18T15:44:57;4.82;;;3.67;;
48550;SDS011;34397;51.176;6.738;2023-02-18T15:47:34;6.43;;;3.72;;
48550;SDS011;34397;51.176;6.738;2023-02-18T15:50:15;5.65;;;3.50;;
48550;SDS011;34397;51.176;6.738;2023-02-18T15:52:49;7.57;;;3.22;;
48550;SDS011;34397;51.176;6.738;2023-02-18T15:55:24;5.30;;;3.30;;
48550;SDS011;34397;51.176;6.738;2023-02-18T15:58:03;7.22;;;4.10;;
48550;SDS011;34397;51.176;6.738;2023-02-18T16:00:38;5.35;;;3.40;;
48550;SDS011;34397;51.176;6.738;2023-02-18T16:03:12;4.72;;;3.40;;
48550;SDS011;34397;51.176;6.738;2023-02-18T16:05:47;5.78;;;3.22;;
48550;SDS011;34397;51.176;6.738;2023-02-18T16:10:55;8.10;;;3.72;;
48550;SDS011;34397;51.176;6.738;2023-02-18T16:13:31;6.10;;;3.70;;
48550;SDS011;34397;51.176;6.738;2023-02-18T16:16:06;4.97;;;3.75;;
48550;SDS011;34397;51.176;6.738;2023-02-18T16:18:50;7.72;;;4.07;;